createdAt,value
2022-08-05T00:00:16.009Z,3.56
2022-08-05T00:01:20.998Z,1.12
2022-08-05T00:02:16.987Z,2.96
2022-08-05T00:03:15.449Z,0.36
2022-08-05T00:04:14.123Z,1.76
2022-08-05T00:06:03.006Z,3.48
2022-08-05T00:06:28.949Z,5.60
2022-08-05T00:07:26.764Z,1.68
2022-08-05T00:08:32.827Z,1.24
2022-08-05T00:09:19.739Z,3.68
2022-08-05T00:10:18.692Z,3.76
2022-08-05T00:11:20.656Z,5.92
2022-08-05T00:12:15.635Z,8.04
2022-08-05T00:13:18.757Z,5.04
2022-08-05T00:14:18.476Z,9.48
2022-08-05T00:15:57.993Z,4.12
2022-08-05T00:16:16.591Z,7.64
2022-08-05T00:17:18.812Z,9.12
2022-08-05T00:18:19.827Z,11.20
2022-08-05T00:19:17.101Z,6.20
2022-08-05T00:20:20.264Z,4.00
2022-08-05T00:21:15.974Z,3.12
2022-08-05T00:22:18.092Z,5.24
2022-08-05T00:23:17.902Z,3.68
2022-08-05T00:24:18.978Z,4.68
2022-08-05T00:25:17.306Z,4.48
2022-08-05T00:26:17.687Z,3.52
2022-08-05T00:27:16.728Z,3.16
2022-08-05T00:28:16.717Z,2.32
2022-08-05T00:29:16.551Z,4.68
2022-08-05T00:30:14.864Z,2.72
2022-08-05T00:31:53.635Z,2.12
2022-08-05T00:32:14.914Z,1.08
2022-08-05T00:34:56.987Z,0.40
2022-08-05T00:34:57.051Z,1.56
2022-08-05T00:35:15.221Z,0.00
2022-08-05T00:37:09.036Z,0.00
2022-08-05T00:37:16.312Z,0.00
2022-08-05T00:38:16.467Z,0.84
2022-08-05T00:39:13.854Z,0.64
2022-08-05T00:40:27.864Z,0.64
2022-08-05T00:41:19.794Z,1.52
2022-08-05T00:42:31.917Z,1.76
2022-08-05T00:43:15.384Z,5.24
2022-08-05T00:44:17.805Z,9.16
2022-08-05T00:45:15.670Z,8.72
2022-08-05T00:46:19.807Z,6.84
2022-08-05T00:47:16.390Z,3.52
2022-08-05T00:48:15.211Z,11.00
2022-08-05T00:49:15.180Z,8.32
2022-08-05T00:50:13.467Z,5.68
2022-08-05T00:51:51.051Z,5.96
2022-08-05T00:52:14.654Z,2.12
2022-08-05T00:54:01.456Z,3.04
2022-08-05T00:54:18.409Z,4.84
2022-08-05T00:55:16.453Z,9.04
2022-08-05T00:56:13.587Z,8.00
2022-08-05T00:57:16.647Z,3.32
2022-08-05T00:58:14.760Z,2.68
2022-08-05T00:59:17.826Z,2.56
2022-08-05T01:00:21.908Z,4.36
2022-08-05T01:01:15.272Z,3.96
2022-08-05T01:02:15.454Z,6.00
2022-08-05T01:03:22.524Z,1.80
2022-08-05T01:04:15.923Z,0.80
2022-08-05T01:05:17.896Z,1.20
2022-08-05T01:06:17.147Z,5.68
2022-08-05T01:07:18.160Z,1.56
2022-08-05T01:08:30.292Z,1.84
2022-08-05T01:09:17.355Z,3.12
2022-08-05T01:10:16.176Z,3.24
2022-08-05T01:11:21.884Z,2.16
2022-08-05T01:12:18.552Z,2.20
2022-08-05T01:13:22.290Z,5.96
2022-08-05T01:14:15.513Z,5.32
2022-08-05T01:15:35.616Z,1.56
2022-08-05T01:16:23.016Z,1.80
2022-08-05T01:17:17.867Z,3.00
2022-08-05T01:18:14.635Z,2.48
2022-08-05T01:19:18.692Z,1.48
2022-08-05T01:20:15.448Z,0.20
2022-08-05T01:21:22.878Z,0.24
2022-08-05T01:22:23.933Z,0.84
2022-08-05T01:23:15.510Z,0.00
2022-08-05T01:24:14.416Z,0.28
2022-08-05T01:25:15.172Z,0.00
2022-08-05T01:26:17.825Z,6.88
2022-08-05T01:27:17.925Z,3.00
2022-08-05T01:28:15.139Z,0.20
2022-08-05T01:29:14.566Z,0.52
2022-08-05T01:30:18.686Z,0.64
2022-08-05T01:31:14.483Z,0.00
2022-08-05T01:32:18.569Z,2.76
2022-08-05T01:33:19.651Z,3.32
2022-08-05T01:34:17.737Z,0.12
2022-08-05T01:35:51.758Z,0.16
2022-08-05T01:36:16.293Z,0.00
2022-08-05T01:37:18.139Z,0.28
2022-08-05T01:38:27.582Z,0.00
2022-08-05T01:39:15.209Z,0.88
2022-08-05T01:40:19.157Z,0.08
2022-08-05T01:41:13.200Z,1.44
2022-08-05T01:42:20.843Z,0.64
2022-08-05T01:43:22.343Z,2.44
2022-08-05T01:44:16.605Z,1.12
2022-08-05T01:45:16.492Z,2.08
2022-08-05T01:46:42.020Z,1.12
2022-08-05T01:47:16.493Z,1.20
2022-08-05T01:48:16.600Z,1.20
2022-08-05T01:49:23.258Z,0.64
2022-08-05T01:50:15.396Z,2.76
2022-08-05T01:51:13.137Z,6.40
2022-08-05T01:52:17.994Z,3.64
2022-08-05T01:53:55.151Z,2.24
2022-08-05T01:54:15.449Z,2.32
2022-08-05T01:55:15.050Z,4.72
2022-08-05T01:58:09.705Z,4.00
2022-08-05T01:58:16.731Z,2.56
2022-08-05T01:58:29.790Z,1.76
2022-08-05T01:59:14.605Z,1.76
2022-08-05T02:00:17.723Z,8.20
2022-08-05T02:01:17.004Z,3.36
2022-08-05T02:02:18.684Z,7.84
2022-08-05T02:03:24.210Z,5.44
2022-08-05T02:04:17.299Z,6.48
2022-08-05T02:05:15.214Z,5.96
2022-08-05T02:06:37.452Z,7.64
2022-08-05T02:07:19.928Z,9.81
2022-08-05T02:08:16.545Z,8.00
2022-08-05T02:09:21.209Z,9.20
2022-08-05T02:10:17.308Z,12.14
2022-08-05T02:11:23.574Z,9.64
2022-08-05T02:12:18.451Z,7.28
2022-08-05T02:13:16.218Z,6.68
2022-08-05T02:14:17.591Z,9.88
2022-08-05T02:15:14.027Z,7.20
2022-08-05T02:16:16.309Z,7.52
2022-08-05T02:17:29.700Z,11.40
2022-08-05T02:18:31.485Z,8.64
2022-08-05T02:19:16.874Z,7.44
2022-08-05T02:20:15.446Z,6.20
2022-08-05T02:21:15.823Z,1.64
2022-08-05T02:22:25.651Z,1.44
2022-08-05T02:23:18.766Z,6.76
2022-08-05T02:24:17.859Z,8.04
2022-08-05T02:25:18.033Z,7.44
2022-08-05T02:26:17.399Z,6.64
2022-08-05T02:27:15.197Z,6.88
2022-08-05T02:28:17.039Z,7.28
2022-08-05T02:29:21.530Z,6.08
2022-08-05T02:30:14.730Z,9.24
2022-08-05T02:31:21.263Z,11.88
2022-08-05T02:32:23.647Z,14.12
2022-08-05T02:33:16.653Z,10.64
2022-08-05T02:34:16.657Z,7.96
2022-08-05T02:35:14.626Z,8.56
2022-08-05T02:36:17.309Z,11.64
2022-08-05T02:37:13.913Z,7.52
2022-08-05T02:38:19.284Z,9.60
2022-08-05T02:39:16.187Z,11.88
2022-08-05T02:40:17.291Z,9.52
2022-08-05T02:41:17.286Z,9.92
2022-08-05T02:42:25.912Z,9.72
2022-08-05T02:43:14.172Z,8.08
2022-08-05T02:44:14.984Z,8.08
2022-08-05T02:45:15.082Z,6.08
2022-08-05T02:46:16.489Z,7.00
2022-08-05T02:47:13.877Z,10.80
2022-08-05T02:48:14.115Z,9.56
2022-08-05T02:49:13.873Z,14.68
2022-08-05T02:50:18.578Z,13.88
2022-08-05T02:51:16.836Z,5.68
2022-08-05T02:52:29.849Z,3.28
2022-08-05T02:53:16.176Z,6.00
2022-08-05T02:54:35.026Z,10.44
2022-08-05T02:55:17.576Z,9.92
2022-08-05T02:56:18.967Z,17.68
2022-08-05T02:58:09.288Z,14.00
2022-08-05T02:58:15.106Z,9.00
2022-08-05T02:59:18.098Z,9.92
2022-08-05T03:00:16.783Z,9.48
2022-08-05T03:01:15.838Z,16.32
2022-08-05T03:02:13.508Z,11.72
2022-08-05T03:03:15.490Z,3.64
2022-08-05T03:04:15.740Z,12.00
2022-08-05T03:05:16.995Z,14.44
2022-08-05T03:06:55.815Z,6.68
2022-08-05T03:07:24.713Z,3.64
2022-08-05T03:08:15.183Z,10.40
2022-08-05T03:09:18.065Z,5.48
2022-08-05T03:10:24.687Z,6.80
2022-08-05T03:11:54.642Z,10.80
2022-08-05T03:12:13.815Z,14.52
2022-08-05T03:13:16.777Z,10.44
2022-08-05T03:14:16.455Z,2.80
2022-08-05T03:15:13.521Z,4.56
2022-08-05T03:16:13.403Z,6.76
2022-08-05T03:17:15.646Z,12.76
2022-08-05T03:18:17.616Z,7.88
2022-08-05T03:19:34.134Z,3.24
2022-08-05T03:20:13.999Z,4.72
2022-08-05T03:21:14.691Z,4.88
2022-08-05T03:22:16.596Z,4.40
2022-08-05T03:23:16.088Z,4.92
2022-08-05T03:24:15.503Z,2.44
2022-08-05T03:25:34.016Z,4.00
2022-08-05T03:26:31.569Z,2.72
2022-08-05T03:27:14.993Z,3.40
2022-08-05T03:28:13.870Z,4.84
2022-08-05T03:29:13.106Z,2.12
2022-08-05T03:30:16.770Z,3.16
2022-08-05T03:31:18.307Z,2.68
2022-08-05T03:32:17.428Z,2.88
2022-08-05T03:33:15.649Z,0.68
2022-08-05T03:34:15.289Z,0.16
2022-08-05T03:35:14.838Z,0.00
2022-08-05T03:36:14.944Z,2.20
2022-08-05T03:37:14.845Z,5.04
2022-08-05T03:38:17.448Z,1.96
2022-08-05T03:39:20.370Z,0.00
2022-08-05T03:40:13.030Z,0.00
2022-08-05T03:41:15.113Z,4.64
2022-08-05T03:42:13.341Z,9.40
2022-08-05T03:43:58.220Z,3.96
2022-08-05T03:44:13.541Z,1.40
2022-08-05T03:45:21.499Z,0.00
2022-08-05T03:46:12.829Z,1.52
2022-08-05T03:47:13.644Z,0.00
2022-08-05T03:48:15.349Z,0.84
2022-08-05T03:49:13.010Z,3.72
2022-08-05T03:50:13.198Z,1.56
2022-08-05T03:52:37.526Z,2.44
2022-08-05T03:52:49.385Z,1.60
2022-08-05T03:55:51.689Z,6.12
2022-08-05T03:56:01.078Z,4.64
2022-08-05T03:56:04.906Z,6.00
2022-08-05T03:56:27.903Z,6.52
2022-08-05T03:57:16.099Z,5.12
2022-08-05T03:58:13.750Z,6.80
2022-08-05T03:59:12.816Z,1.76
2022-08-05T04:00:15.912Z,2.20
2022-08-05T04:01:13.579Z,3.52
2022-08-05T04:02:17.390Z,2.80
2022-08-05T04:03:14.876Z,3.88
2022-08-05T04:04:13.628Z,4.48
2022-08-05T04:05:13.673Z,4.36
2022-08-05T04:06:15.391Z,1.88
2022-08-05T04:07:13.251Z,1.12
2022-08-05T04:08:14.734Z,0.64
2022-08-05T04:09:14.417Z,2.60
2022-08-05T04:10:13.393Z,1.44
2022-08-05T04:11:13.478Z,0.00
2022-08-05T04:12:24.370Z,0.00
2022-08-05T04:13:12.822Z,0.00
2022-08-05T04:14:17.865Z,0.00
2022-08-05T04:15:15.616Z,0.00
2022-08-05T04:16:14.320Z,1.40
2022-08-05T04:17:13.558Z,2.08
2022-08-05T04:18:20.519Z,1.32
2022-08-05T04:19:13.624Z,0.08
2022-08-05T04:20:14.203Z,0.24
2022-08-05T04:21:14.254Z,0.96
2022-08-05T04:22:13.256Z,0.08
2022-08-05T04:23:16.111Z,0.00
2022-08-05T04:24:18.694Z,0.00
2022-08-05T04:25:13.753Z,0.00
2022-08-05T04:26:13.704Z,0.00
2022-08-05T04:27:13.949Z,0.12
2022-08-05T04:28:15.190Z,1.84
2022-08-05T04:29:13.270Z,0.84
2022-08-05T04:30:13.415Z,1.04
2022-08-05T04:31:15.977Z,0.62
2022-08-05T04:32:12.980Z,1.20
2022-08-05T04:33:12.944Z,1.40
2022-08-05T04:34:19.201Z,0.92
2022-08-05T04:35:17.651Z,1.68
2022-08-05T04:36:44.657Z,0.40
2022-08-05T04:37:13.438Z,1.12
2022-08-05T04:38:15.628Z,0.00
2022-08-05T04:39:13.775Z,0.00
2022-08-05T04:40:13.652Z,0.16
2022-08-05T04:41:13.348Z,1.36
2022-08-05T04:42:15.230Z,1.00
2022-08-05T04:43:16.606Z,3.52
2022-08-05T04:44:12.937Z,1.27
2022-08-05T04:45:22.838Z,2.00
2022-08-05T04:46:13.375Z,3.48
2022-08-05T04:47:18.379Z,3.24
2022-08-05T04:48:18.398Z,3.80
2022-08-05T04:49:19.351Z,3.60
2022-08-05T04:50:12.930Z,2.96
2022-08-05T04:51:13.291Z,3.60
2022-08-05T04:52:13.521Z,3.36
2022-08-05T04:53:13.431Z,4.24
2022-08-05T04:54:12.995Z,1.48
2022-08-05T04:55:14.254Z,0.52
2022-08-05T04:56:33.983Z,3.32
2022-08-05T04:57:13.439Z,2.64
2022-08-05T04:58:13.323Z,4.12
2022-08-05T04:59:22.205Z,1.88
2022-08-05T05:00:14.614Z,3.00
2022-08-05T05:01:13.815Z,4.08
2022-08-05T05:02:37.196Z,1.32
2022-08-05T05:03:13.003Z,3.16
2022-08-05T05:04:13.825Z,2.52
2022-08-05T05:05:16.626Z,3.44
2022-08-05T05:06:40.753Z,3.96
2022-08-05T05:07:15.931Z,3.40
2022-08-05T05:08:14.469Z,3.80
2022-08-05T05:09:14.038Z,6.12
2022-08-05T05:10:15.433Z,7.48
2022-08-05T05:11:15.301Z,2.16
2022-08-05T05:12:15.048Z,2.88
2022-08-05T05:13:13.084Z,3.72
2022-08-05T05:14:16.120Z,2.40
2022-08-05T05:15:13.418Z,1.92
2022-08-05T05:16:13.579Z,4.64
2022-08-05T05:17:14.865Z,3.28
2022-08-05T05:18:13.887Z,2.60
2022-08-05T05:19:18.897Z,4.20
2022-08-05T05:20:13.771Z,4.52
2022-08-05T05:21:12.950Z,5.76
2022-08-05T05:22:24.049Z,2.24
2022-08-05T05:23:19.932Z,2.76
2022-08-05T05:24:13.132Z,1.52
2022-08-05T05:25:16.123Z,3.24
2022-08-05T05:26:13.543Z,4.24
2022-08-05T05:27:13.218Z,1.04
2022-08-05T05:28:13.118Z,3.12
2022-08-05T05:29:14.834Z,1.28
2022-08-05T05:30:29.644Z,2.40
2022-08-05T05:31:13.599Z,4.44
2022-08-05T05:32:15.542Z,2.68
2022-08-05T05:33:17.001Z,1.52
2022-08-05T05:34:15.529Z,3.28
2022-08-05T05:35:13.294Z,4.96
2022-08-05T05:36:13.036Z,4.60
2022-08-05T05:37:13.759Z,3.40
2022-08-05T05:38:14.167Z,4.28
2022-08-05T05:39:13.668Z,3.52
2022-08-05T05:40:13.364Z,0.12
2022-08-05T05:41:13.153Z,1.68
2022-08-05T05:42:13.717Z,0.76
2022-08-05T05:43:14.038Z,0.12
2022-08-05T05:44:26.984Z,1.32
2022-08-05T05:45:14.156Z,1.56
2022-08-05T05:46:16.085Z,2.72
2022-08-05T05:47:30.362Z,4.16
2022-08-05T05:48:16.161Z,4.52
2022-08-05T05:49:22.602Z,4.00
2022-08-05T05:50:16.425Z,3.76
2022-08-05T05:51:15.010Z,3.44
2022-08-05T05:52:13.386Z,2.68
2022-08-05T05:53:21.496Z,3.72
2022-08-05T05:54:12.971Z,4.64
2022-08-05T05:55:14.806Z,3.80
2022-08-05T05:56:14.297Z,2.32
2022-08-05T05:57:19.008Z,0.64
2022-08-05T05:58:13.352Z,0.20
2022-08-05T05:59:13.296Z,1.28
2022-08-05T06:00:13.149Z,2.80
2022-08-05T06:01:15.338Z,3.68
2022-08-05T06:02:13.641Z,5.08
2022-08-05T06:03:40.517Z,5.48
2022-08-05T06:04:14.871Z,3.52
2022-08-05T06:05:16.577Z,4.48
2022-08-05T06:06:13.167Z,4.24
2022-08-05T06:07:13.075Z,3.00
2022-08-05T06:08:13.252Z,2.16
2022-08-05T06:09:17.430Z,1.12
2022-08-05T06:10:15.544Z,2.88
2022-08-05T06:11:13.754Z,4.40
2022-08-05T06:12:13.751Z,2.60
2022-08-05T06:13:15.383Z,2.32
2022-08-05T06:14:13.448Z,1.72
2022-08-05T06:15:23.659Z,1.68
2022-08-05T06:16:29.147Z,1.76
2022-08-05T06:17:22.574Z,4.76
2022-08-05T06:18:13.668Z,2.84
2022-08-05T06:19:13.459Z,2.88
2022-08-05T06:20:21.386Z,3.16
2022-08-05T06:21:16.562Z,2.20
2022-08-05T06:22:13.871Z,3.84
2022-08-05T06:23:13.057Z,2.56
2022-08-05T06:24:14.833Z,0.76
2022-08-05T06:25:59.408Z,1.28
2022-08-05T06:26:20.817Z,2.28
2022-08-05T06:28:08.831Z,3.36
2022-08-05T06:28:20.901Z,3.84
2022-08-05T06:29:42.789Z,2.28
2022-08-05T06:30:17.900Z,1.32
2022-08-05T06:31:18.064Z,1.04
2022-08-05T06:32:21.304Z,2.40
2022-08-05T06:33:19.277Z,0.36
2022-08-05T06:34:15.801Z,2.16
2022-08-05T06:35:15.519Z,3.40
2022-08-05T06:36:15.763Z,2.44
2022-08-05T06:37:14.797Z,3.16
2022-08-05T06:38:13.681Z,3.52
2022-08-05T06:39:15.052Z,1.00
2022-08-05T06:40:13.658Z,1.60
2022-08-05T06:41:14.026Z,2.00
2022-08-05T06:42:14.489Z,4.28
2022-08-05T06:43:59.755Z,1.56
2022-08-05T06:44:13.102Z,1.16
2022-08-05T06:45:21.181Z,1.96
2022-08-05T06:46:13.890Z,3.16
2022-08-05T06:47:30.326Z,2.80
2022-08-05T06:48:53.598Z,3.08
2022-08-05T06:49:13.734Z,3.20
2022-08-05T06:50:17.357Z,2.24
2022-08-05T06:51:25.324Z,2.88
2022-08-05T06:52:37.290Z,4.64
2022-08-05T06:53:22.679Z,3.72
2022-08-05T06:54:18.929Z,4.12
2022-08-05T06:55:13.375Z,3.52
2022-08-05T06:56:25.929Z,1.24
2022-08-05T06:57:56.923Z,4.80
2022-08-05T06:58:29.747Z,4.48
2022-08-05T06:59:13.031Z,2.48
2022-08-05T07:00:12.930Z,3.36
2022-08-05T07:01:13.353Z,4.04
2022-08-05T07:02:13.251Z,4.12
2022-08-05T07:03:12.859Z,2.40
2022-08-05T07:04:14.065Z,4.12
2022-08-05T07:05:18.659Z,3.76
2022-08-05T07:06:14.151Z,3.24
2022-08-05T07:07:13.431Z,2.88
2022-08-05T07:08:13.290Z,4.84
2022-08-05T07:09:13.959Z,3.92
2022-08-05T07:10:14.879Z,7.80
2022-08-05T07:11:15.582Z,7.56
2022-08-05T07:12:13.982Z,7.20
2022-08-05T07:13:13.280Z,4.96
2022-08-05T07:14:20.001Z,3.72
2022-08-05T07:15:13.762Z,4.24
2022-08-05T07:17:55.939Z,4.04
2022-08-05T07:18:07.058Z,4.32
2022-08-05T07:18:20.414Z,5.04
2022-08-05T07:19:16.074Z,5.28
2022-08-05T07:20:34.154Z,9.16
2022-08-05T07:21:13.148Z,4.88
2022-08-05T07:22:15.790Z,8.32
2022-08-05T07:23:13.129Z,6.76
2022-08-05T07:24:15.256Z,2.68
2022-08-05T07:25:54.433Z,6.32
2022-08-05T07:26:15.025Z,2.32
2022-08-05T07:27:13.488Z,4.20
2022-08-05T07:28:17.391Z,4.44
2022-08-05T07:29:13.785Z,2.96
2022-08-05T07:30:25.372Z,6.04
2022-08-05T07:31:13.500Z,6.12
2022-08-05T07:32:15.129Z,5.92
2022-08-05T07:33:16.812Z,5.80
2022-08-05T07:34:14.086Z,7.96
2022-08-05T07:36:03.319Z,5.92
2022-08-05T07:36:20.676Z,6.72
2022-08-05T07:37:14.583Z,6.16
2022-08-05T07:38:32.957Z,4.72
2022-08-05T07:39:24.692Z,7.80
2022-08-05T07:40:31.355Z,7.96
2022-08-05T07:42:07.246Z,8.32
2022-08-05T07:42:16.155Z,1.60
2022-08-05T07:43:20.520Z,5.00
2022-08-05T07:44:18.431Z,7.40
2022-08-05T07:45:13.530Z,8.68
2022-08-05T07:46:24.398Z,7.24
2022-08-05T07:47:14.838Z,12.16
2022-08-05T07:48:13.110Z,5.28
2022-08-05T07:49:13.300Z,9.56
2022-08-05T07:50:16.517Z,12.40
2022-08-05T07:51:23.863Z,10.64
2022-08-05T07:52:12.890Z,8.60
2022-08-05T07:53:13.349Z,7.52
2022-08-05T07:54:13.828Z,8.24
2022-08-05T07:55:44.002Z,2.24
2022-08-05T07:57:02.476Z,9.48
2022-08-05T07:57:42.080Z,11.32
2022-08-05T07:58:17.770Z,3.60
2022-08-05T07:59:13.515Z,12.36
2022-08-05T08:00:14.901Z,12.08
2022-08-05T08:01:12.995Z,6.28
2022-08-05T08:02:17.080Z,9.68
2022-08-05T08:03:15.627Z,12.84
2022-08-05T08:04:13.257Z,9.60
2022-08-05T08:05:14.775Z,11.00
2022-08-05T08:06:15.296Z,15.44
2022-08-05T08:07:13.414Z,18.40
2022-08-05T08:08:16.290Z,16.60
2022-08-05T08:09:13.395Z,13.68
2022-08-05T08:10:15.015Z,11.84
2022-08-05T08:11:15.916Z,11.80
2022-08-05T08:12:27.467Z,17.32
2022-08-05T08:13:13.717Z,11.40
2022-08-05T08:14:18.327Z,15.84
2022-08-05T08:15:15.107Z,15.84
2022-08-05T08:16:35.401Z,15.72
2022-08-05T08:17:15.785Z,14.08
2022-08-05T08:18:14.369Z,15.52
2022-08-05T08:20:10.331Z,12.40
2022-08-05T08:20:42.587Z,12.76
2022-08-05T08:21:15.983Z,7.76
2022-08-05T08:22:15.980Z,11.72
2022-08-05T08:24:02.579Z,5.56
2022-08-05T08:24:15.061Z,12.31
2022-08-05T08:25:15.753Z,14.24
2022-08-05T08:26:13.552Z,12.32
2022-08-05T08:27:16.556Z,7.60
2022-08-05T08:28:18.959Z,5.20
2022-08-05T08:29:29.381Z,7.12
2022-08-05T08:30:29.765Z,4.20
2022-08-05T08:31:15.036Z,3.28
2022-08-05T08:32:13.587Z,4.64
2022-08-05T08:33:13.818Z,8.44
2022-08-05T08:34:13.403Z,4.16
2022-08-05T08:35:13.902Z,10.44
2022-08-05T08:36:38.967Z,9.00
2022-08-05T08:37:12.965Z,5.80
2022-08-05T08:38:16.390Z,8.44
2022-08-05T08:39:16.410Z,4.88
2022-08-05T08:40:13.699Z,2.40
2022-08-05T08:41:14.001Z,5.24
2022-08-05T08:42:32.714Z,6.64
2022-08-05T08:45:17.036Z,1.36
2022-08-05T08:45:20.171Z,7.56
2022-08-05T08:45:24.841Z,5.68
2022-08-05T08:46:15.492Z,3.80
2022-08-05T08:47:47.534Z,5.24
2022-08-05T08:48:36.070Z,6.88
2022-08-05T08:50:22.688Z,16.60
2022-08-05T08:50:31.618Z,10.42
2022-08-05T08:52:02.020Z,8.52
2022-08-05T08:52:14.367Z,2.52
2022-08-05T08:53:13.547Z,5.20
2022-08-05T08:54:13.774Z,4.80
2022-08-05T08:55:13.388Z,6.36
2022-08-05T08:56:13.219Z,4.56
2022-08-05T08:57:13.716Z,2.44
2022-08-05T08:58:13.916Z,10.72
2022-08-05T08:59:19.464Z,3.92
2022-08-05T09:00:15.613Z,3.20
2022-08-05T09:01:15.828Z,9.52
2022-08-05T09:02:13.354Z,5.68
2022-08-05T09:03:16.099Z,2.32
2022-08-05T09:04:13.454Z,3.12
2022-08-05T09:05:16.430Z,8.60
2022-08-05T09:06:17.193Z,11.00
2022-08-05T09:07:19.425Z,3.48
2022-08-05T09:08:13.926Z,3.08
2022-08-05T09:09:12.948Z,4.76
2022-08-05T09:10:13.521Z,2.72
2022-08-05T09:11:13.895Z,3.52
2022-08-05T09:12:20.797Z,4.12
2022-08-05T09:13:16.696Z,8.60
2022-08-05T09:14:57.810Z,9.92
2022-08-05T09:15:12.983Z,6.28
2022-08-05T09:16:14.513Z,9.60
2022-08-05T09:17:39.885Z,9.96
2022-08-05T09:18:13.327Z,6.68
2022-08-05T09:19:14.640Z,7.64
2022-08-05T09:20:36.686Z,5.68
2022-08-05T09:21:21.138Z,7.36
2022-08-05T09:22:31.220Z,13.88
2022-08-05T09:23:18.625Z,8.24
2022-08-05T09:24:13.116Z,6.72
2022-08-05T09:25:23.684Z,3.24
2022-08-05T09:26:15.830Z,13.56
2022-08-05T09:27:13.182Z,9.76
2022-08-05T09:28:13.330Z,6.76
2022-08-05T09:29:18.746Z,13.20
2022-08-05T09:30:16.337Z,6.28
2022-08-05T09:31:43.300Z,5.28
2022-08-05T09:32:41.178Z,9.20
2022-08-05T09:33:17.051Z,8.52
2022-08-05T09:34:13.519Z,5.76
2022-08-05T09:35:26.948Z,2.88
2022-08-05T09:36:16.238Z,2.36
2022-08-05T09:37:15.125Z,5.40
2022-08-05T09:38:18.240Z,4.16
2022-08-05T09:39:18.307Z,3.36
2022-08-05T09:40:14.651Z,0.00
2022-08-05T09:41:16.076Z,0.00
2022-08-05T09:42:23.080Z,0.00
2022-08-05T09:43:12.759Z,0.00
2022-08-05T09:44:13.708Z,0.00
2022-08-05T09:46:05.286Z,0.40
2022-08-05T09:46:13.614Z,0.88
2022-08-05T09:47:15.581Z,0.72
2022-08-05T09:48:17.830Z,7.44
2022-08-05T09:49:19.350Z,2.68
2022-08-05T09:50:13.700Z,6.52
2022-08-05T09:51:18.615Z,4.80
2022-08-05T09:52:14.206Z,2.16
2022-08-05T09:53:22.728Z,8.80
2022-08-05T09:54:13.531Z,6.44
2022-08-05T09:55:56.403Z,2.68
2022-08-05T09:56:13.635Z,0.08
2022-08-05T09:57:23.130Z,7.64
2022-08-05T09:58:13.632Z,9.96
2022-08-05T09:59:16.923Z,8.96
2022-08-05T10:00:13.617Z,6.20
2022-08-05T10:01:15.240Z,7.96
2022-08-05T10:02:13.581Z,10.92
2022-08-05T10:03:13.779Z,8.36
2022-08-05T10:04:16.188Z,7.60
2022-08-05T10:05:13.418Z,6.24
2022-08-05T10:06:15.807Z,8.76
2022-08-05T10:07:20.227Z,7.60
2022-08-05T10:08:37.749Z,4.96
2022-08-05T10:09:27.667Z,8.56
2022-08-05T10:10:14.929Z,9.84
2022-08-05T10:11:13.761Z,4.72
2022-08-05T10:12:18.916Z,1.60
2022-08-05T10:13:14.666Z,1.48
2022-08-05T10:14:13.654Z,6.08
2022-08-05T10:15:13.703Z,1.52
2022-08-05T10:16:13.202Z,0.96
2022-08-05T10:17:14.121Z,4.68
2022-08-05T10:18:12.859Z,4.56
2022-08-05T10:19:15.815Z,2.00
2022-08-05T10:20:12.946Z,5.56
2022-08-05T10:21:16.328Z,2.24
2022-08-05T10:22:15.759Z,0.16
2022-08-05T10:23:34.339Z,3.52
2022-08-05T10:24:13.851Z,8.28
2022-08-05T10:25:14.454Z,4.32
2022-08-05T10:26:14.870Z,3.72
2022-08-05T10:27:13.449Z,3.52
2022-08-05T10:28:19.173Z,3.00
2022-08-05T10:29:13.212Z,1.52
2022-08-05T10:32:48.227Z,1.52
2022-08-05T10:32:51.664Z,0.28
2022-08-05T10:32:55.537Z,5.32
2022-08-05T10:33:15.072Z,0.84
2022-08-05T10:34:13.788Z,0.32
2022-08-05T10:35:13.101Z,1.84
2022-08-05T10:36:12.975Z,0.00
2022-08-05T10:37:13.024Z,1.76
2022-08-05T10:38:13.684Z,0.80
2022-08-05T10:39:24.053Z,2.80
2022-08-05T10:40:18.528Z,4.28
2022-08-05T10:41:13.674Z,4.88
2022-08-05T10:42:12.949Z,3.04
2022-08-05T10:43:12.796Z,4.16
2022-08-05T10:44:13.140Z,4.12
2022-08-05T10:45:23.252Z,1.48
2022-08-05T10:46:13.799Z,4.32
2022-08-05T10:47:25.780Z,3.76
2022-08-05T10:48:29.421Z,4.52
2022-08-05T10:49:16.945Z,7.44
2022-08-05T10:50:20.429Z,2.32
2022-08-05T10:51:22.375Z,4.36
2022-08-05T10:52:13.930Z,7.36
2022-08-05T10:53:12.852Z,3.24
2022-08-05T10:54:28.713Z,1.96
2022-08-05T10:55:15.988Z,4.64
2022-08-05T10:56:21.355Z,2.80
2022-08-05T10:57:14.544Z,1.65
2022-08-05T10:58:14.903Z,7.20
2022-08-05T11:00:02.727Z,7.84
2022-08-05T11:00:18.477Z,11.12
2022-08-05T11:01:13.559Z,10.92
2022-08-05T11:02:38.494Z,5.36
2022-08-05T11:03:25.731Z,3.68
2022-08-05T11:04:13.782Z,5.84
2022-08-05T11:05:13.681Z,4.56
2022-08-05T11:06:15.032Z,3.76
2022-08-05T11:07:13.795Z,5.72
2022-08-05T11:08:33.931Z,6.44
2022-08-05T11:09:16.566Z,3.48
2022-08-05T11:10:13.405Z,4.96
2022-08-05T11:11:16.713Z,6.24
2022-08-05T11:12:13.181Z,2.80
2022-08-05T11:13:13.425Z,7.20
2022-08-05T11:14:14.043Z,7.76
2022-08-05T11:15:20.755Z,5.64
2022-08-05T11:16:13.184Z,8.72
2022-08-05T11:17:59.782Z,6.64
2022-08-05T11:18:13.563Z,5.36
2022-08-05T11:20:10.418Z,20.28
2022-08-05T11:20:18.273Z,12.92
2022-08-05T11:21:13.554Z,13.16
2022-08-05T11:22:13.549Z,9.36
2022-08-05T11:23:13.887Z,1.24
2022-08-05T11:24:29.831Z,5.48
2022-08-05T11:25:37.280Z,1.80
2022-08-05T11:26:14.277Z,3.80
2022-08-05T11:27:17.396Z,5.72
2022-08-05T11:28:17.207Z,9.64
2022-08-05T11:29:17.020Z,7.08
2022-08-05T11:30:14.478Z,16.68
2022-08-05T11:31:19.533Z,8.24
2022-08-05T11:32:14.454Z,20.24
2022-08-05T11:33:13.777Z,24.56
2022-08-05T11:34:15.852Z,13.24
2022-08-05T11:35:15.430Z,2.44
2022-08-05T11:36:15.168Z,1.64
2022-08-05T11:38:14.926Z,13.00
2022-08-05T11:38:26.825Z,14.92
2022-08-05T11:39:13.900Z,13.36
2022-08-05T11:40:12.958Z,7.36
2022-08-05T11:41:58.270Z,6.92
2022-08-05T11:42:18.584Z,11.12
2022-08-05T11:43:13.725Z,8.52
2022-08-05T11:44:40.088Z,4.32
2022-08-05T11:45:27.037Z,6.96
2022-08-05T11:46:27.263Z,16.48
2022-08-05T11:47:19.951Z,24.24
2022-08-05T11:48:15.437Z,12.44
2022-08-05T11:49:17.768Z,5.44
2022-08-05T11:50:15.443Z,2.92
2022-08-05T11:51:43.776Z,5.16
2022-08-05T11:52:17.488Z,0.36
2022-08-05T11:53:17.456Z,8.40
2022-08-05T11:54:13.933Z,6.36
2022-08-05T11:55:16.787Z,2.28
2022-08-05T11:56:16.648Z,11.20
2022-08-05T11:57:25.867Z,9.16
2022-08-05T11:58:18.818Z,12.36
2022-08-05T11:59:21.157Z,14.76
2022-08-05T12:00:15.105Z,28.24
2022-08-05T12:01:13.097Z,21.00
2022-08-05T12:02:30.561Z,17.56
2022-08-05T12:03:13.654Z,19.44
2022-08-05T12:04:13.807Z,17.72
2022-08-05T12:05:18.522Z,24.88
2022-08-05T12:06:13.818Z,7.80
2022-08-05T12:07:13.997Z,12.60
2022-08-05T12:08:18.205Z,18.20
2022-08-05T12:09:20.117Z,18.32
2022-08-05T12:10:13.639Z,9.36
2022-08-05T12:11:17.266Z,12.28
2022-08-05T12:12:13.641Z,28.76
2022-08-05T12:13:15.900Z,19.00
2022-08-05T12:14:12.928Z,13.80
2022-08-05T12:15:17.031Z,24.16
2022-08-05T12:16:14.923Z,25.36
2022-08-05T12:18:00.756Z,18.56
2022-08-05T12:18:14.053Z,18.44
2022-08-05T12:20:25.443Z,4.84
2022-08-05T12:20:25.654Z,5.12
2022-08-05T12:21:15.375Z,10.96
2022-08-05T12:22:13.573Z,17.64
2022-08-05T12:23:13.063Z,27.08
2022-08-05T12:24:13.108Z,8.36
2022-08-05T12:25:14.229Z,13.04
2022-08-05T12:26:13.558Z,12.60
2022-08-05T12:27:21.305Z,13.00
2022-08-05T12:28:15.713Z,6.12
2022-08-05T12:29:16.426Z,4.08
2022-08-05T12:30:15.360Z,13.28
2022-08-05T12:31:23.214Z,16.20
2022-08-05T12:32:14.733Z,19.68
2022-08-05T12:33:27.972Z,23.80
2022-08-05T12:34:20.581Z,22.80
2022-08-05T12:35:13.660Z,21.44
2022-08-05T12:36:13.612Z,11.32
2022-08-05T12:37:17.516Z,11.04
2022-08-05T12:38:13.683Z,5.88
2022-08-05T12:39:15.103Z,9.08
2022-08-05T12:40:26.443Z,7.96
2022-08-05T12:41:14.131Z,11.56
2022-08-05T12:42:14.945Z,5.76
2022-08-05T12:43:20.606Z,2.76
2022-08-05T12:44:14.440Z,5.52
2022-08-05T12:45:13.845Z,9.12
2022-08-05T12:46:14.241Z,10.44
2022-08-05T12:47:25.455Z,18.36
2022-08-05T12:48:17.537Z,6.52
2022-08-05T12:49:19.018Z,16.08
2022-08-05T12:50:19.881Z,10.44
2022-08-05T12:51:21.907Z,3.32
2022-08-05T12:52:23.917Z,1.04
2022-08-05T12:53:13.427Z,1.00
2022-08-05T12:54:16.703Z,6.40
2022-08-05T12:55:14.974Z,13.28
2022-08-05T12:56:34.519Z,11.60
2022-08-05T12:57:17.474Z,10.12
2022-08-05T12:58:38.894Z,5.84
2022-08-05T12:59:14.139Z,7.88
2022-08-05T13:02:02.287Z,10.24
2022-08-05T13:02:03.018Z,10.84
2022-08-05T13:02:17.925Z,7.56
2022-08-05T13:03:17.504Z,15.92
2022-08-05T13:04:20.895Z,2.20
2022-08-05T13:05:14.759Z,4.80
2022-08-05T13:06:16.511Z,13.00
2022-08-05T13:07:26.930Z,7.68
2022-08-05T13:08:19.509Z,9.08
2022-08-05T13:09:27.932Z,11.40
2022-08-05T13:10:19.901Z,9.28
2022-08-05T13:11:15.847Z,6.88
2022-08-05T13:12:20.728Z,5.44
2022-08-05T13:14:06.342Z,6.36
2022-08-05T13:14:15.411Z,2.76